ADDS METAR Data INFO
IDs: Format: Raw Decoded Include TAF

Data at: 2043 UTC 15 Aug 2018

METAR for:KVES (Versailles/Darke Cnt, OH, US)
Text:KVES 152035Z AUTO 22006KT 4SM VCTSRA SCT039 SCT048 OVC050 21/21 A3005 RMK AO2
Temperature: 21.0°C ( 70°F)
Dewpoint: 21.0°C ( 70°F) [RH = 100%]
Pressure (altimeter):30.05 inches Hg (1017.7 mb)
Winds:from the SW (220 degrees) at 7 MPH (6 knots; 3.1 m/s)
Visibility: 4 sm ( 6 km)
Ceiling:5000 feet AGL
Clouds: scattered clouds at 3900 feet AGL, scattered clouds at 4800 feet AGL, overcast cloud deck at 5000 feet AGL
Weather:VCTSRA (unknown weather)
QC Flag:automated observation with no human augmentation